Time;durP1;ratioP1;P1;durP2;ratioP2;P2;SDS_P1;SDS_P2;PMS_P1;PMS_P2;Temp;Humidity;BMP_temperature;BMP_pressure;BME280_temperature;BME280_humidity;BME280_pressure;Samples;Min_cycle;Max_cycle;Signal;HPM_P1;HPM_P2
2020/12/23 00:00:31;;;;;;;;;;;;;;;4.44;92.06;99978.44;4920826;29;19927;-73
2020/12/23 00:03:07;;;;;;;;;;;;;;;4.41;92.12;99984.25;4921053;29;20381;-73
2020/12/23 00:05:34;;;;;;;;;;;;;;;4.43;92.01;99976.69;4918493;29;19931;-74
2020/12/23 00:08:01;;;;;;;;;;;;;;;4.40;91.89;99967.38;4920726;29;19937;-73
2020/12/23 00:10:29;;;;;;;;;;;;;;;4.39;92.15;99972.38;4920943;29;19927;-73
2020/12/23 00:13:18;;;;;;;;;;;;;;;4.40;92.03;99981.66;4862575;29;19935;-73
2020/12/23 00:15:46;;;;;;;;;;;;;;;4.43;92.26;99984.28;4862453;29;19980;-73
2020/12/23 00:18:13;;;;;;;;;;;;;;;4.46;92.18;99984.38;4862535;29;19934;-73
2020/12/23 00:20:41;;;;;;;;;;;;;;;4.50;91.88;99981.09;4862351;29;19928;-72
2020/12/23 00:23:08;;;;;;;;;;;;;;;4.48;91.80;99980.22;4862349;29;19929;-73
2020/12/23 00:25:36;;;;;;;;;;;;;;;4.47;92.06;99973.44;4845864;29;19932;-72
2020/12/23 00:28:03;;;;;;;;;;;;;;;4.44;91.81;99979.25;4862240;29;19928;-73
2020/12/23 00:30:32;;;;;;;;;;;;;;;4.44;92.06;99983.47;4846879;29;19981;-73
2020/12/23 00:32:59;;;;;;;;;;;;;;;4.47;92.03;99979.34;4861995;29;19929;-73
2020/12/23 00:35:27;;;;;;;;;;;;;;;4.47;92.09;99984.41;4862370;29;19928;-73
2020/12/23 00:37:54;;;;;;;;;;;;;;;4.47;92.19;99988.59;4862144;29;19932;-73
2020/12/23 00:40:21;;;;;;;;;;;;;;;4.48;92.35;99990.31;4861901;29;20434;-73
2020/12/23 00:42:48;;;;;;;;;;;;;;;4.49;92.39;99997.06;4861971;29;19928;-73
2020/12/23 00:45:16;;;;;;;;;;;;;;;4.49;92.23;100002.13;4861901;29;19928;-73
2020/12/23 00:47:46;;;;;;;;;;;;;;;4.50;91.92;100008.91;4861884;29;19939;-73
2020/12/23 00:50:13;;;;;;;;;;;;;;;4.46;91.97;100007.13;4886762;29;19927;-73
2020/12/23 00:52:40;;;;;;;;;;;;;;;4.49;92.26;100008.03;4919866;29;20019;-72
2020/12/23 00:55:09;;;;;;;;;;;;;;;4.49;92.17;100008.03;4902969;29;20002;-73
2020/12/23 00:57:39;;;;;;;;;;;;;;;4.47;91.87;100004.63;4903534;29;19927;-73
2020/12/23 01:00:07;;;;;;;;;;;;;;;4.49;92.22;100002.13;4919770;29;19934;-73
2020/12/23 01:02:34;;;;;;;;;;;;;;;4.47;92.33;100004.63;4919762;29;19931;-73
2020/12/23 01:05:03;;;;;;;;;;;;;;;4.47;91.82;99998.69;4919985;29;20329;-73
2020/12/23 01:07:30;;;;;;;;;;;;;;;4.48;92.19;100000.44;4919711;29;19927;-73
2020/12/23 01:09:58;;;;;;;;;;;;;;;4.47;92.03;99998.69;4919565;29;20006;-73
2020/12/23 01:12:25;;;;;;;;;;;;;;;4.44;92.28;100002.00;4919699;29;19959;-73
2020/12/23 01:14:55;;;;;;;;;;;;;;;4.43;92.20;99996.91;4919780;29;19927;-73
2020/12/23 01:17:23;;;;;;;;;;;;;;;4.42;92.04;99996.06;4919958;29;20067;-72
2020/12/23 01:19:50;;;;;;;;;;;;;;;4.42;92.45;100005.28;4919436;29;19927;-73
2020/12/23 01:22:18;;;;;;;;;;;;;;;4.39;92.42;100000.19;4919255;29;19975;-73
2020/12/23 01:24:45;;;;;;;;;;;;;;;4.38;92.18;100008.56;4919330;29;19954;-73
2020/12/23 01:27:13;;;;;;;;;;;;;;;4.41;92.19;100009.50;4919263;29;19928;-73
2020/12/23 01:29:41;;;;;;;;;;;;;;;4.45;92.30;100007.91;4919111;29;19927;-73
2020/12/23 01:32:09;;;;;;;;;;;;;;;4.47;92.32;100006.28;4919340;29;19934;-73
2020/12/23 01:34:36;;;;;;;;;;;;;;;4.46;92.31;100002.06;4919145;29;19927;-73
2020/12/23 01:37:04;;;;;;;;;;;;;;;4.44;92.12;100001.16;4919097;29;19931;-73
2020/12/23 01:39:32;;;;;;;;;;;;;;;4.47;92.26;99999.56;4919116;29;19927;-73
2020/12/23 01:42:00;;;;;;;;;;;;;;;4.47;92.25;99993.66;4919031;29;19927;-73
2020/12/23 01:44:27;;;;;;;;;;;;;;;4.44;91.95;99989.38;4918953;29;19927;-73
2020/12/23 01:46:55;;;;;;;;;;;;;;;4.43;92.31;99979.22;4918971;29;19935;-73
2020/12/23 01:49:22;;;;;;;;;;;;;;;4.43;92.16;99981.75;4902028;29;19927;-73
2020/12/23 01:51:50;;;;;;;;;;;;;;;4.43;92.30;99971.66;4918806;29;19927;-73
2020/12/23 01:54:17;;;;;;;;;;;;;;;4.46;92.64;99966.69;4918849;29;19927;-73
2020/12/23 01:56:45;;;;;;;;;;;;;;;4.44;92.62;99973.38;4918702;29;19955;-73
2020/12/23 01:59:13;;;;;;;;;;;;;;;4.45;92.32;99968.34;4918771;29;19927;-73
2020/12/23 02:01:41;;;;;;;;;;;;;;;4.47;92.16;99963.31;4918656;29;19934;-73
2020/12/23 02:04:21;;;;;;;;;;;;;;;4.47;92.29;99968.38;4918725;29;19927;-73
2020/12/23 02:06:48;;;;;;;;;;;;;;;4.47;92.48;99968.38;4918480;29;19927;-73
2020/12/23 02:09:15;;;;;;;;;;;;;;;4.48;92.59;99970.09;4918601;29;20022;-73
2020/12/23 02:11:43;;;;;;;;;;;;;;;4.51;92.72;99962.63;4933380;29;19927;-73
2020/12/23 02:14:11;;;;;;;;;;;;;;;4.50;92.75;99958.38;4918299;29;20014;-73
2020/12/23 02:16:39;;;;;;;;;;;;;;;4.49;92.61;99959.16;4918359;29;19950;-73
2020/12/23 02:19:06;;;;;;;;;;;;;;;4.49;92.83;99966.75;4918674;29;19928;-73
2020/12/23 02:21:34;;;;;;;;;;;;;;;4.49;92.79;99969.28;4918243;29;19954;-73
2020/12/23 02:24:02;;;;;;;;;;;;;;;4.46;92.51;99964.16;4918294;29;20271;-73
2020/12/23 02:26:30;;;;;;;;;;;;;;;4.46;92.55;99966.69;4918707;29;19927;-73
2020/12/23 02:28:57;;;;;;;;;;;;;;;4.48;92.68;99960.00;4918242;29;19934;-73
2020/12/23 02:31:24;;;;;;;;;;;;;;;4.47;92.55;99960.81;4918109;29;20046;-73
2020/12/23 02:33:53;;;;;;;;;;;;;;;4.47;92.21;99958.28;4918098;29;19978;-73
2020/12/23 02:36:20;;;;;;;;;;;;;;;4.46;92.45;99956.56;4918163;29;19933;-73
2020/12/23 02:38:47;;;;;;;;;;;;;;;4.47;92.85;99963.31;4918251;29;19931;-73
2020/12/23 02:41:16;;;;;;;;;;;;;;;4.50;92.58;99953.31;4918308;29;20301;-73
2020/12/23 02:43:43;;;;;;;;;;;;;;;4.49;92.77;99941.47;4917976;29;20049;-73
2020/12/23 02:46:10;;;;;;;;;;;;;;;4.49;92.80;99944.00;4918018;29;19933;-73
2020/12/23 02:48:39;;;;;;;;;;;;;;;4.44;92.57;99933.78;4917369;29;19973;-73
2020/12/23 02:51:07;;;;;;;;;;;;;;;4.43;92.75;99932.09;4901067;29;20288;-73
2020/12/23 02:53:35;;;;;;;;;;;;;;;4.39;92.56;99924.38;4917787;29;19931;-73
2020/12/23 02:56:02;;;;;;;;;;;;;;;4.40;92.51;99936.19;4917889;29;19927;-72
2020/12/23 02:58:31;;;;;;;;;;;;;;;4.44;92.65;99940.53;4917820;29;19935;-73
2020/12/23 03:01:00;;;;;;;;;;;;;;;4.45;92.84;99944.75;4918376;29;20378;-73
2020/12/23 03:03:27;;;;;;;;;;;;;;;4.45;92.91;99929.59;4917816;29;19927;-73
2020/12/23 03:05:54;;;;;;;;;;;;;;;4.46;92.81;99936.38;4917450;29;20404;-73
2020/12/23 03:08:22;;;;;;;;;;;;;;;4.48;92.72;99934.72;4918019;29;19959;-73
2020/12/23 03:10:49;;;;;;;;;;;;;;;4.48;92.73;99927.16;4917682;29;20017;-73
2020/12/23 03:13:38;;;;;;;;;;;;;;;4.51;92.61;99925.53;4860022;29;19928;-73
2020/12/23 03:16:06;;;;;;;;;;;;;;;4.50;92.62;99928.03;4859979;29;20055;-73
2020/12/23 03:18:33;;;;;;;;;;;;;;;4.49;92.45;99921.25;4859507;29;19928;-73
2020/12/23 03:21:00;;;;;;;;;;;;;;;4.52;92.90;99921.34;4859615;29;19935;-73
2020/12/23 03:23:28;;;;;;;;;;;;;;;4.51;92.94;99912.91;4844312;29;19969;-73
2020/12/23 03:25:56;;;;;;;;;;;;;;;4.54;92.59;99924.78;4859526;29;20015;-73
2020/12/23 03:28:23;;;;;;;;;;;;;;;4.54;92.49;99914.66;4859565;29;20562;-73
2020/12/23 03:30:52;;;;;;;;;;;;;;;4.54;93.01;99917.19;4859720;29;19929;-73
2020/12/23 03:33:22;;;;;;;;;;;;;;;4.55;92.91;99921.44;4859436;29;20355;-73
2020/12/23 03:35:50;;;;;;;;;;;;;;;4.55;92.90;99929.03;4844124;29;19928;-73
2020/12/23 03:38:17;;;;;;;;;;;;;;;4.54;92.67;99919.72;4859699;29;19928;-73
2020/12/23 03:40:45;;;;;;;;;;;;;;;4.55;92.97;99927.38;4844092;29;19928;-72
2020/12/23 03:43:12;;;;;;;;;;;;;;;4.56;93.13;99933.25;4860102;29;19932;-72
2020/12/23 03:45:40;;;;;;;;;;;;;;;4.56;92.84;99928.19;4844179;29;19935;-72
2020/12/23 03:48:09;;;;;;;;;;;;;;;4.53;92.97;99930.66;4859493;29;19928;-73
2020/12/23 03:50:37;;;;;;;;;;;;;;;4.54;92.69;99932.34;4885294;29;19927;-73
2020/12/23 03:53:05;;;;;;;;;;;;;;;4.50;93.01;99925.50;4917236;29;19938;-72
2020/12/23 03:55:33;;;;;;;;;;;;;;;4.47;92.84;99927.94;4917366;29;20354;-73
2020/12/23 03:58:00;;;;;;;;;;;;;;;4.48;92.76;99924.63;4916110;29;19950;-73
2020/12/23 04:00:27;;;;;;;;;;;;;;;4.45;92.86;99922.00;4920308;29;19927;-73
2020/12/23 04:02:54;;;;;;;;;;;;;;;4.46;92.68;99921.19;4921060;29;20329;-73
2020/12/23 04:05:37;;;;;;;;;;;;;;;4.45;92.71;99927.06;4921308;29;19928;-73
2020/12/23 04:08:05;;;;;;;;;;;;;;;4.47;93.03;99923.75;4940043;29;19935;-73
2020/12/23 04:10:32;;;;;;;;;;;;;;;4.47;92.64;99922.91;4939713;29;19933;-73
2020/12/23 04:13:02;;;;;;;;;;;;;;;4.43;92.95;99918.59;4939557;29;19934;-73
2020/12/23 04:15:29;;;;;;;;;;;;;;;4.42;92.96;99924.44;4939537;29;19927;-73
2020/12/23 04:17:56;;;;;;;;;;;;;;;4.46;93.00;99921.19;4939857;29;20017;-73
2020/12/23 04:20:23;;;;;;;;;;;;;;;4.50;93.03;99921.31;4939385;29;19933;-73
2020/12/23 04:22:52;;;;;;;;;;;;;;;4.54;93.16;99919.72;4939510;29;20333;-73
2020/12/23 04:25:20;;;;;;;;;;;;;;;4.57;93.26;99919.81;4939276;29;19935;-73
2020/12/23 04:27:47;;;;;;;;;;;;;;;4.55;93.16;99911.34;4939364;29;19931;-73
2020/12/23 04:30:15;;;;;;;;;;;;;;;4.54;92.74;99917.19;4939337;29;19927;-73
2020/12/23 04:32:42;;;;;;;;;;;;;;;4.53;92.93;99907.91;4939109;29;19958;-73
2020/12/23 04:35:09;;;;;;;;;;;;;;;4.49;92.72;99906.09;4922280;29;19926;-73
2020/12/23 04:37:37;;;;;;;;;;;;;;;4.48;92.70;99904.41;4939177;29;19927;-73
2020/12/23 04:40:06;;;;;;;;;;;;;;;4.50;93.24;99902.78;4939101;29;20013;-73
2020/12/23 04:42:33;;;;;;;;;;;;;;;4.53;93.13;99902.88;4922157;29;20285;-73
2020/12/23 04:45:01;;;;;;;;;;;;;;;4.55;93.02;99901.22;4939097;29;19933;-73
2020/12/23 04:47:30;;;;;;;;;;;;;;;4.55;93.07;99911.34;4939191;29;20020;-73
2020/12/23 04:49:57;;;;;;;;;;;;;;;4.55;92.88;99906.28;4938940;29;19998;-73
2020/12/23 04:52:30;;;;;;;;;;;;;;;4.55;92.72;99901.22;4921745;29;19966;-73
2020/12/23 04:54:58;;;;;;;;;;;;;;;4.52;92.85;99906.19;4939095;29;19934;-73
2020/12/23 04:57:27;;;;;;;;;;;;;;;4.54;92.87;99917.19;4938787;29;19931;-73
2020/12/23 04:59:55;;;;;;;;;;;;;;;4.54;93.03;99918.06;4938814;29;20334;-73
2020/12/23 05:02:27;;;;;;;;;;;;;;;4.55;92.67;99906.28;4938818;29;19927;-73
2020/12/23 05:04:54;;;;;;;;;;;;;;;4.57;92.92;99904.66;4938682;29;19949;-73
2020/12/23 05:07:22;;;;;;;;;;;;;;;4.59;93.02;99910.59;4938486;29;20010;-73
2020/12/23 05:09:49;;;;;;;;;;;;;;;4.59;92.75;99903.00;4938594;29;19988;-73
2020/12/23 05:12:17;;;;;;;;;;;;;;;4.57;92.84;99894.53;4938115;29;19926;-73
2020/12/23 05:14:45;;;;;;;;;;;;;;;4.56;93.19;99895.34;4938342;29;20403;-73
2020/12/23 05:17:13;;;;;;;;;;;;;;;4.57;92.92;99900.44;4938584;29;19927;-73
2020/12/23 05:19:40;;;;;;;;;;;;;;;4.56;93.22;99888.63;4938453;29;19927;-73
2020/12/23 05:22:09;;;;;;;;;;;;;;;4.53;93.03;99887.69;4938390;29;20009;-73
2020/12/23 05:24:37;;;;;;;;;;;;;;;4.55;92.79;99881.00;4938331;29;19926;-73
2020/12/23 05:27:06;;;;;;;;;;;;;;;4.59;93.25;99885.31;4938384;29;19931;-73
2020/12/23 05:29:34;;;;;;;;;;;;;;;4.60;93.04;99889.56;4937395;29;20396;-73
2020/12/23 05:32:03;;;;;;;;;;;;;;;4.60;92.81;99890.44;4938188;29;19926;-73
2020/12/23 05:34:32;;;;;;;;;;;;;;;4.60;93.15;99889.56;4938167;29;19934;-73
2020/12/23 05:37:01;;;;;;;;;;;;;;;4.62;93.07;99887.94;4938040;29;19927;-73
2020/12/23 05:39:29;;;;;;;;;;;;;;;4.63;92.89;99890.50;4938111;29;20360;-73
2020/12/23 05:41:57;;;;;;;;;;;;;;;4.61;92.98;99891.25;4938277;29;19965;-73
2020/12/23 05:44:25;;;;;;;;;;;;;;;4.61;93.20;99886.22;4938026;29;19934;-73
2020/12/23 05:46:52;;;;;;;;;;;;;;;4.60;92.89;99884.50;4937965;29;19933;-73
2020/12/23 05:49:21;;;;;;;;;;;;;;;4.60;93.01;99892.09;4937818;29;19933;-73
2020/12/23 05:51:49;;;;;;;;;;;;;;;4.64;92.80;99887.16;4937892;29;19950;-71
2020/12/23 05:54:17;;;;;;;;;;;;;;;4.64;92.98;99891.34;4937708;29;19930;-71
2020/12/23 05:56:45;;;;;;;;;;;;;;;4.61;93.03;99896.31;4937683;29;19926;-71
2020/12/23 05:59:12;;;;;;;;;;;;;;;4.58;93.14;99888.69;4937720;29;19942;-72
2020/12/23 06:01:39;;;;;;;;;;;;;;;4.54;93.15;99877.63;4937679;29;20029;-71
2020/12/23 06:04:07;;;;;;;;;;;;;;;4.52;92.86;99885.97;4937928;29;20373;-73
2020/12/23 06:06:55;;;;;;;;;;;;;;;4.57;92.87;99894.53;4937165;29;19933;-74
2020/12/23 06:09:24;;;;;;;;;;;;;;;4.57;92.93;99894.53;4916808;29;20301;-74
2020/12/23 06:11:54;;;;;;;;;;;;;;;4.56;92.77;99883.56;4906730;29;19931;-75
2020/12/23 06:14:23;;;;;;;;;;;;;;;4.55;92.78;99875.97;4908162;29;20022;-73
2020/12/23 06:16:51;;;;;;;;;;;;;;;4.56;93.25;99872.59;4907917;29;19955;-73
2020/12/23 06:19:23;;;;;;;;;;;;;;;4.54;92.65;99874.22;4909420;29;20247;-74
2020/12/23 06:21:50;;;;;;;;;;;;;;;4.56;92.87;99892.81;4905095;29;19934;-74
2020/12/23 06:24:19;;;;;;;;;;;;;;;4.58;92.62;99881.94;4906615;29;19986;-73
2020/12/23 06:26:49;;;;;;;;;;;;;;;4.58;93.13;99891.22;4907155;29;19950;-73
2020/12/23 06:29:17;;;;;;;;;;;;;;;4.59;92.72;99892.91;4888900;29;19931;-74
2020/12/23 06:31:45;;;;;;;;;;;;;;;4.61;92.99;99886.22;4912059;29;19982;-73
2020/12/23 06:34:13;;;;;;;;;;;;;;;4.57;92.65;99889.47;4912966;29;20070;-72
2020/12/23 06:36:40;;;;;;;;;;;;;;;4.55;92.79;99886.06;4913940;29;19927;-73
2020/12/23 06:39:11;;;;;;;;;;;;;;;4.58;92.67;99892.03;4902454;29;19958;-73
2020/12/23 06:41:39;;;;;;;;;;;;;;;4.59;93.00;99885.31;4916069;29;19934;-73
2020/12/23 06:44:09;;;;;;;;;;;;;;;4.59;93.05;99886.19;4919872;29;19935;-73
2020/12/23 06:46:52;;;;;;;;;;;;;;;4.57;93.04;99884.44;4918224;29;19934;-73
2020/12/23 06:49:19;;;;;;;;;;;;;;;4.58;92.68;99874.34;4917451;29;19927;-72
2020/12/23 06:51:47;;;;;;;;;;;;;;;4.58;92.63;99871.00;4917477;29;19927;-73
2020/12/23 06:54:20;;;;;;;;;;;;;;;4.57;93.02;99877.72;4900896;29;19927;-73
2020/12/23 06:56:50;;;;;;;;;;;;;;;4.58;92.53;99876.03;4917720;29;19931;-73
2020/12/23 06:59:20;;;;;;;;;;;;;;;4.58;92.79;99883.63;4917462;29;20386;-73
2020/12/23 07:01:47;;;;;;;;;;;;;;;4.61;93.10;99892.13;4918027;29;19936;-73
2020/12/23 07:04:14;;;;;;;;;;;;;;;4.65;92.83;99883.81;4917914;29;20318;-72
2020/12/23 07:06:42;;;;;;;;;;;;;;;4.67;92.97;99886.38;4917746;29;19975;-73
2020/12/23 07:09:09;;;;;;;;;;;;;;;4.68;92.71;99888.94;4917773;29;19927;-72
2020/12/23 07:11:39;;;;;;;;;;;;;;;4.68;92.75;99880.50;4917585;29;19927;-73
2020/12/23 07:14:07;;;;;;;;;;;;;;;4.65;92.99;99888.84;4917618;29;19986;-73
2020/12/23 07:16:38;;;;;;;;;;;;;;;4.65;92.71;99882.97;4917863;29;19927;-73
2020/12/23 07:19:07;;;;;;;;;;;;;;;4.64;92.84;99886.28;4917733;29;19927;-73
2020/12/23 07:21:34;;;;;;;;;;;;;;;4.66;92.70;99884.66;4917728;29;19931;-73
2020/12/23 07:24:03;;;;;;;;;;;;;;;4.65;93.10;99888.84;4917502;29;20382;-72
2020/12/23 07:26:30;;;;;;;;;;;;;;;4.68;93.14;99898.19;4917658;29;20005;-72
2020/12/23 07:28:59;;;;;;;;;;;;;;;4.69;92.92;99899.91;4917510;29;19928;-73
2020/12/23 07:31:27;;;;;;;;;;;;;;;4.70;92.51;99905.00;4917541;29;19931;-72
2020/12/23 07:33:54;;;;;;;;;;;;;;;4.69;92.97;99904.97;4918181;29;19931;-72
2020/12/23 07:36:22;;;;;;;;;;;;;;;4.68;92.68;99898.19;4921340;29;19927;-72
2020/12/23 07:38:50;;;;;;;;;;;;;;;4.68;92.92;99898.19;4921215;29;19927;-73
2020/12/23 07:41:17;;;;;;;;;;;;;;;4.69;93.05;99898.25;4921156;29;19951;-72
2020/12/23 07:43:45;;;;;;;;;;;;;;;4.69;92.54;99890.66;4921224;29;20285;-72
2020/12/23 07:46:13;;;;;;;;;;;;;;;4.70;92.92;99889.84;4921346;29;19927;-72
2020/12/23 07:48:42;;;;;;;;;;;;;;;4.73;92.67;99889.06;4921144;29;19927;-72
2020/12/23 07:51:09;;;;;;;;;;;;;;;4.75;92.85;99895.03;4920992;29;19927;-72
2020/12/23 07:53:37;;;;;;;;;;;;;;;4.72;92.93;99895.81;4903919;29;20040;-72
2020/12/23 07:56:05;;;;;;;;;;;;;;;4.74;92.50;99893.31;4920893;29;20338;-72
2020/12/23 07:58:35;;;;;;;;;;;;;;;4.80;92.82;99883.34;4920926;29;20432;-72
2020/12/23 08:01:02;;;;;;;;;;;;;;;4.80;92.94;99880.81;4920837;29;19990;-72
2020/12/23 08:03:29;;;;;;;;;;;;;;;4.80;93.02;99880.81;4921121;29;19934;-72
2020/12/23 08:06:00;;;;;;;;;;;;;;;4.84;92.70;99894.41;4920537;29;19927;-73
2020/12/23 08:08:28;;;;;;;;;;;;;;;4.86;92.91;99898.69;4920728;29;20035;-72
2020/12/23 08:10:55;;;;;;;;;;;;;;;4.81;92.75;99890.13;4920714;29;19934;-72
2020/12/23 08:13:24;;;;;;;;;;;;;;;4.80;92.93;99903.56;4903748;29;19927;-72
2020/12/23 08:16:01;;;;;;;;;;;;;;;4.80;93.05;99890.91;4903955;29;20018;-72
2020/12/23 08:18:29;;;;;;;;;;;;;;;4.78;92.60;99884.97;4920542;29;20334;-72
2020/12/23 08:20:56;;;;;;;;;;;;;;;4.74;92.90;99878.13;4920584;29;19931;-72
2020/12/23 08:23:24;;;;;;;;;;;;;;;4.73;92.76;99882.34;4920420;29;19974;-72
2020/12/23 08:25:53;;;;;;;;;;;;;;;4.79;92.63;99879.13;4920392;29;19934;-72
2020/12/23 08:28:22;;;;;;;;;;;;;;;4.82;92.94;99873.28;4920374;29;19957;-72
2020/12/23 08:30:50;;;;;;;;;;;;;;;4.84;92.98;99880.09;4900341;29;19927;-72
2020/12/23 08:33:17;;;;;;;;;;;;;;;4.84;93.16;99864.06;4910948;29;19938;-72
2020/12/23 08:35:45;;;;;;;;;;;;;;;4.84;93.06;99877.56;4913372;29;19927;-74
2020/12/23 08:38:15;;;;;;;;;;;;;;;4.90;92.89;99882.75;4901920;29;20301;-72
2020/12/23 08:40:44;;;;;;;;;;;;;;;4.91;93.20;99876.91;4901275;29;19928;-72
2020/12/23 08:43:18;;;;;;;;;;;;;;;4.94;93.05;99892.16;4901301;29;19927;-72
2020/12/23 08:45:46;;;;;;;;;;;;;;;5.00;92.97;99886.38;4900681;29;19937;-72
2020/12/23 08:48:17;;;;;;;;;;;;;;;5.06;93.09;99877.25;4901169;29;19927;-72
2020/12/23 08:50:52;;;;;;;;;;;;;;;5.07;93.06;99873.06;4901388;29;19950;-73
2020/12/23 08:53:19;;;;;;;;;;;;;;;5.10;93.32;99865.53;4901117;29;19934;-72
2020/12/23 08:55:47;;;;;;;;;;;;;;;5.06;92.92;99872.19;4901024;29;19931;-72
2020/12/23 08:58:16;;;;;;;;;;;;;;;5.01;92.86;99868.72;4900981;29;19970;-72
2020/12/23 09:00:43;;;;;;;;;;;;;;;5.04;93.09;99873.81;4900976;29;19963;-72
2020/12/23 09:03:20;;;;;;;;;;;;;;;5.06;93.11;99877.25;4900881;29;19935;-72
2020/12/23 09:05:48;;;;;;;;;;;;;;;5.09;92.83;99867.22;4900953;29;19963;-72
2020/12/23 09:08:15;;;;;;;;;;;;;;;5.09;92.94;99857.09;4881873;29;19928;-72
2020/12/23 09:10:51;;;;;;;;;;;;;;;5.19;93.03;99878.41;4895104;29;19928;-72
2020/12/23 09:13:19;;;;;;;;;;;;;;;5.21;92.94;99880.16;4895028;29;19928;-71
2020/12/23 09:15:52;;;;;;;;;;;;;;;5.23;93.10;99868.38;4881912;29;20450;-72
2020/12/23 09:18:20;;;;;;;;;;;;;;;5.20;93.05;99863.28;4881999;29;19934;-72
2020/12/23 09:20:54;;;;;;;;;;;;;;;5.18;93.17;99852.25;4881932;29;20378;-72
2020/12/23 09:23:21;;;;;;;;;;;;;;;5.16;92.87;99826.06;4899473;29;19960;-71
2020/12/23 09:25:49;;;;;;;;;;;;;;;5.12;93.10;99831.88;4900557;29;19931;-71
2020/12/23 09:28:16;;;;;;;;;;;;;;;5.16;93.08;99838.72;4900385;29;19964;-72
2020/12/23 09:30:45;;;;;;;;;;;;;;;5.19;93.28;99830.34;4900695;29;20018;-72
2020/12/23 09:33:12;;;;;;;;;;;;;;;5.22;93.10;99828.75;4900332;29;20387;-72
2020/12/23 09:35:40;;;;;;;;;;;;;;;5.22;93.21;99836.34;4900260;29;19949;-72
2020/12/23 09:38:09;;;;;;;;;;;;;;;5.23;92.98;99838.03;4887092;29;20386;-72
2020/12/23 09:40:37;;;;;;;;;;;;;;;5.25;93.44;99833.88;4882354;29;19932;-72
2020/12/23 09:43:08;;;;;;;;;;;;;;;5.28;93.29;99830.53;4900164;29;19928;-72
2020/12/23 09:45:37;;;;;;;;;;;;;;;5.32;93.21;99845.00;4900227;29;19931;-72
2020/12/23 09:48:05;;;;;;;;;;;;;;;5.36;93.19;99836.63;4884483;29;19984;-72
2020/12/23 09:50:33;;;;;;;;;;;;;;;5.36;93.26;99823.97;4890703;29;19928;-71
2020/12/23 09:53:00;;;;;;;;;;;;;;;5.33;93.29;99812.13;4881340;29;19927;-71
2020/12/23 09:55:27;;;;;;;;;;;;;;;5.31;93.12;99808.72;4881155;29;19934;-71
2020/12/23 09:57:55;;;;;;;;;;;;;;;5.31;92.91;99806.19;4881173;29;19928;-72
2020/12/23 10:00:22;;;;;;;;;;;;;;;5.30;93.39;99786.75;4881437;29;19928;-72
2020/12/23 10:02:49;;;;;;;;;;;;;;;5.32;93.28;99780.06;4894625;29;20385;-72
2020/12/23 10:05:19;;;;;;;;;;;;;;;5.32;93.44;99785.13;4899738;29;19934;-72
2020/12/23 10:07:46;;;;;;;;;;;;;;;5.32;93.11;99775.00;4903031;29;19931;-72
2020/12/23 10:10:13;;;;;;;;;;;;;;;5.35;93.31;99767.47;4899905;29;19928;-72
2020/12/23 10:12:41;;;;;;;;;;;;;;;5.34;92.98;99767.44;4899588;29;19951;-72
2020/12/23 10:15:08;;;;;;;;;;;;;;;5.35;93.11;99757.34;4899806;29;20005;-72
2020/12/23 10:17:36;;;;;;;;;;;;;;;5.34;93.12;99753.09;4882859;29;20058;-73
2020/12/23 10:20:04;;;;;;;;;;;;;;;5.33;93.25;99745.47;4899472;29;19927;-73
2020/12/23 10:22:32;;;;;;;;;;;;;;;5.32;93.23;99737.06;4899698;29;20030;-73
2020/12/23 10:24:59;;;;;;;;;;;;;;;5.34;93.24;99726.94;4899581;29;19927;-73
2020/12/23 10:27:27;;;;;;;;;;;;;;;5.35;93.06;99743.84;4899354;29;19996;-73
2020/12/23 10:29:55;;;;;;;;;;;;;;;5.38;93.14;99749.81;4906750;29;19927;-73
2020/12/23 10:32:22;;;;;;;;;;;;;;;5.39;93.14;99743.94;4918408;29;19927;-73
2020/12/23 10:34:49;;;;;;;;;;;;;;;5.41;93.16;99749.88;4918410;29;19959;-73
2020/12/23 10:37:19;;;;;;;;;;;;;;;5.46;93.23;99756.72;4918084;29;20017;-72
2020/12/23 10:39:56;;;;;;;;;;;;;;;5.48;92.68;99757.59;4918062;29;19931;-73
2020/12/23 10:42:27;;;;;;;;;;;;;;;5.48;93.07;99760.97;4918031;29;19934;-72
2020/12/23 10:44:54;;;;;;;;;;;;;;;5.51;93.09;99747.53;4918277;29;20420;-73
2020/12/23 10:47:32;;;;;;;;;;;;;;;5.50;93.03;99743.28;4918086;29;20370;-72
2020/12/23 10:49:59;;;;;;;;;;;;;;;5.48;92.75;99739.88;4901359;29;19927;-72
2020/12/23 10:52:27;;;;;;;;;;;;;;;5.51;92.87;99752.59;4917855;29;19931;-72
2020/12/23 10:54:56;;;;;;;;;;;;;;;5.48;93.43;99755.06;4917812;29;20445;-72
2020/12/23 10:57:24;;;;;;;;;;;;;;;5.49;92.94;99746.66;4918051;29;20014;-72
2020/12/23 10:59:51;;;;;;;;;;;;;;;5.51;92.85;99734.88;4903409;29;19950;-73
2020/12/23 11:02:19;;;;;;;;;;;;;;;5.54;92.88;99738.34;4902706;29;20305;-73
2020/12/23 11:04:46;;;;;;;;;;;;;;;5.57;92.98;99740.06;4902280;29;19927;-73
2020/12/23 11:07:17;;;;;;;;;;;;;;;5.63;93.07;99740.19;4898846;29;19939;-72
2020/12/23 11:09:45;;;;;;;;;;;;;;;5.60;93.39;99732.53;4898935;29;19932;-73
2020/12/23 11:12:14;;;;;;;;;;;;;;;5.57;92.98;99724.88;4904367;29;19973;-72
2020/12/23 11:14:42;;;;;;;;;;;;;;;5.56;92.72;99716.44;4917537;29;19927;-71
2020/12/23 11:17:10;;;;;;;;;;;;;;;5.60;92.76;99714.81;4917634;29;19985;-71
2020/12/23 11:19:37;;;;;;;;;;;;;;;5.60;92.90;99724.94;4917637;29;20408;-71
2020/12/23 11:22:04;;;;;;;;;;;;;;;5.62;92.61;99720.75;4917553;29;19927;-71
2020/12/23 11:24:32;;;;;;;;;;;;;;;5.62;92.57;99718.22;4917610;29;20014;-71
2020/12/23 11:26:59;;;;;;;;;;;;;;;5.65;92.75;99714.09;4917773;29;19934;-71
2020/12/23 11:29:28;;;;;;;;;;;;;;;5.69;92.40;99712.44;4915374;29;20295;-72
2020/12/23 11:31:55;;;;;;;;;;;;;;;5.72;92.59;99709.97;4914717;29;19960;-71
2020/12/23 11:34:23;;;;;;;;;;;;;;;5.75;92.82;99715.09;4916607;29;19975;-72
2020/12/23 11:36:59;;;;;;;;;;;;;;;5.81;92.59;99710.16;4917357;29;20006;-71
2020/12/23 11:39:27;;;;;;;;;;;;;;;5.81;92.51;99694.94;4916991;29;19938;-71
2020/12/23 11:41:54;;;;;;;;;;;;;;;5.76;92.51;99681.38;4917086;29;19986;-71
2020/12/23 11:44:22;;;;;;;;;;;;;;;5.74;92.57;99703.25;4917150;29;19927;-71
2020/12/23 11:46:50;;;;;;;;;;;;;;;5.81;92.61;99689.88;4917009;29;20026;-71
2020/12/23 11:49:18;;;;;;;;;;;;;;;5.83;92.45;99688.25;4915872;29;19931;-71
2020/12/23 11:51:47;;;;;;;;;;;;;;;5.92;92.64;99691.00;4880687;29;19975;-70
2020/12/23 11:54:14;;;;;;;;;;;;;;;5.94;92.24;99681.72;4897889;29;19927;-70
2020/12/23 11:56:44;;;;;;;;;;;;;;;5.97;91.95;99671.66;4898060;29;19932;-70
2020/12/23 11:59:13;;;;;;;;;;;;;;;5.94;92.13;99672.47;4896700;29;19927;-70
2020/12/23 12:01:40;;;;;;;;;;;;;;;5.94;92.62;99669.06;4899880;29;20043;-70
2020/12/23 12:04:09;;;;;;;;;;;;;;;5.99;92.44;99680.13;4916391;29;19927;-70
2020/12/23 12:06:37;;;;;;;;;;;;;;;6.00;92.49;99681.81;4915841;29;19943;-70
2020/12/23 12:09:04;;;;;;;;;;;;;;;5.97;92.26;99671.66;4916631;29;19983;-70
2020/12/23 12:11:33;;;;;;;;;;;;;;;5.99;92.22;99670.00;4916517;29;20374;-70
2020/12/23 12:14:01;;;;;;;;;;;;;;;6.11;92.36;99674.41;4916574;29;19927;-70
2020/12/23 12:16:28;;;;;;;;;;;;;;;6.11;92.65;99665.16;4915959;29;19982;-70
2020/12/23 12:19:10;;;;;;;;;;;;;;;6.17;91.93;99674.53;4916771;29;19928;-70
2020/12/23 12:21:53;;;;;;;;;;;;;;;6.22;92.21;99673.75;4842166;29;19933;-70
2020/12/23 12:24:20;;;;;;;;;;;;;;;6.17;92.07;99674.53;4843428;29;20353;-71
2020/12/23 12:26:48;;;;;;;;;;;;;;;6.20;92.27;99675.41;4843467;29;19932;-70
2020/12/23 12:29:15;;;;;;;;;;;;;;;6.20;91.69;99665.28;4843183;29;19940;-70
2020/12/23 12:31:42;;;;;;;;;;;;;;;6.17;91.96;99670.28;4843211;29;19929;-70
2020/12/23 12:34:10;;;;;;;;;;;;;;;6.19;92.11;99668.63;4843080;29;20330;-71
2020/12/23 12:36:37;;;;;;;;;;;;;;;6.20;92.60;99660.22;4843199;29;19938;-70
2020/12/23 12:39:06;;;;;;;;;;;;;;;6.18;92.12;99651.75;4842913;29;20000;-71
2020/12/23 12:41:33;;;;;;;;;;;;;;;6.17;92.05;99644.97;4843160;29;19935;-71
2020/12/23 12:44:00;;;;;;;;;;;;;;;6.17;92.16;99647.50;4842984;29;19929;-71
2020/12/23 12:46:30;;;;;;;;;;;;;;;6.16;91.79;99640.75;4842914;29;20336;-71
2020/12/23 12:48:58;;;;;;;;;;;;;;;6.15;91.78;99650.81;4843161;29;19928;-71
2020/12/23 12:51:25;;;;;;;;;;;;;;;6.18;92.13;99661.88;4842420;29;19946;-71
2020/12/23 12:53:53;;;;;;;;;;;;;;;6.19;91.63;99650.06;4842898;29;19929;-71
2020/12/23 12:56:23;;;;;;;;;;;;;;;6.16;91.88;99648.34;4842848;29;19968;-70
2020/12/23 12:58:51;;;;;;;;;;;;;;;6.16;92.40;99643.28;4876233;29;19927;-70
2020/12/23 13:01:18;;;;;;;;;;;;;;;6.14;91.70;99655.06;4919282;29;19927;-70